sensor_id;sensor_type;location;lat;lon;timestamp;P1;durP1;ratioP1;P2;durP2;ratioP2
25341;SDS011;13298;48.792;9.154;2023-10-19T00:02:04;14.18;;;8.85;;
25341;SDS011;13298;48.792;9.154;2023-10-19T00:04:32;12.02;;;9.10;;
25341;SDS011;13298;48.792;9.154;2023-10-19T00:07:01;11.63;;;8.18;;
25341;SDS011;13298;48.792;9.154;2023-10-19T00:09:29;16.08;;;9.35;;
25341;SDS011;13298;48.792;9.154;2023-10-19T00:12:02;11.60;;;8.90;;
25341;SDS011;13298;48.792;9.154;2023-10-19T00:14:30;10.48;;;8.25;;
25341;SDS011;13298;48.792;9.154;2023-10-19T00:16:57;10.63;;;8.57;;
25341;SDS011;13298;48.792;9.154;2023-10-19T00:19:26;14.50;;;9.52;;
25341;SDS011;13298;48.792;9.154;2023-10-19T00:21:55;11.80;;;8.15;;
25341;SDS011;13298;48.792;9.154;2023-10-19T00:24:33;14.50;;;8.88;;
25341;SDS011;13298;48.792;9.154;2023-10-19T00:27:00;14.98;;;8.73;;
25341;SDS011;13298;48.792;9.154;2023-10-19T00:29:31;9.57;;;7.63;;
25341;SDS011;13298;48.792;9.154;2023-10-19T00:31:58;11.20;;;7.45;;
25341;SDS011;13298;48.792;9.154;2023-10-19T00:34:27;9.13;;;6.45;;
25341;SDS011;13298;48.792;9.154;2023-10-19T00:36:54;9.40;;;6.03;;
25341;SDS011;13298;48.792;9.154;2023-10-19T00:39:32;5.72;;;4.18;;
25341;SDS011;13298;48.792;9.154;2023-10-19T00:42:18;5.97;;;4.22;;
25341;SDS011;13298;48.792;9.154;2023-10-19T00:44:49;7.38;;;3.70;;
25341;SDS011;13298;48.792;9.154;2023-10-19T00:47:15;7.72;;;4.10;;
25341;SDS011;13298;48.792;9.154;2023-10-19T00:49:45;5.43;;;3.45;;
25341;SDS011;13298;48.792;9.154;2023-10-19T00:52:11;4.78;;;3.67;;
25341;SDS011;13298;48.792;9.154;2023-10-19T00:54:44;7.15;;;3.58;;
25341;SDS011;13298;48.792;9.154;2023-10-19T00:57:15;10.25;;;3.80;;
25341;SDS011;13298;48.792;9.154;2023-10-19T00:59:45;6.10;;;3.83;;
25341;SDS011;13298;48.792;9.154;2023-10-19T01:02:19;7.28;;;3.97;;
25341;SDS011;13298;48.792;9.154;2023-10-19T01:04:47;5.47;;;3.53;;
25341;SDS011;13298;48.792;9.154;2023-10-19T01:07:24;3.88;;;3.40;;
25341;SDS011;13298;48.792;9.154;2023-10-19T01:09:58;5.53;;;3.83;;
25341;SDS011;13298;48.792;9.154;2023-10-19T01:12:26;5.77;;;4.27;;
25341;SDS011;13298;48.792;9.154;2023-10-19T01:17:42;5.28;;;3.88;;
25341;SDS011;13298;48.792;9.154;2023-10-19T01:20:10;6.30;;;3.58;;
25341;SDS011;13298;48.792;9.154;2023-10-19T01:22:52;5.95;;;3.95;;
25341;SDS011;13298;48.792;9.154;2023-10-19T01:28:19;8.27;;;3.90;;
25341;SDS011;13298;48.792;9.154;2023-10-19T01:30:49;5.97;;;4.05;;
25341;SDS011;13298;48.792;9.154;2023-10-19T01:33:18;5.35;;;3.50;;
25341;SDS011;13298;48.792;9.154;2023-10-19T01:35:44;7.10;;;4.20;;
25341;SDS011;13298;48.792;9.154;2023-10-19T01:38:30;5.43;;;3.78;;
25341;SDS011;13298;48.792;9.154;2023-10-19T01:41:05;7.55;;;4.40;;
25341;SDS011;13298;48.792;9.154;2023-10-19T01:43:38;6.75;;;4.43;;
25341;SDS011;13298;48.792;9.154;2023-10-19T01:46:06;6.25;;;4.50;;
25341;SDS011;13298;48.792;9.154;2023-10-19T01:48:37;6.10;;;4.22;;
25341;SDS011;13298;48.792;9.154;2023-10-19T01:51:07;7.00;;;3.75;;
25341;SDS011;13298;48.792;9.154;2023-10-19T01:53:40;6.43;;;3.97;;
25341;SDS011;13298;48.792;9.154;2023-10-19T01:56:10;4.82;;;3.90;;
25341;SDS011;13298;48.792;9.154;2023-10-19T01:58:38;5.13;;;3.17;;
25341;SDS011;13298;48.792;9.154;2023-10-19T02:01:08;7.28;;;3.85;;
25341;SDS011;13298;48.792;9.154;2023-10-19T02:03:35;5.63;;;3.50;;
25341;SDS011;13298;48.792;9.154;2023-10-19T02:06:02;4.63;;;3.08;;
25341;SDS011;13298;48.792;9.154;2023-10-19T02:08:35;5.75;;;3.35;;
25341;SDS011;13298;48.792;9.154;2023-10-19T02:11:04;5.28;;;3.10;;
25341;SDS011;13298;48.792;9.154;2023-10-19T02:13:43;4.90;;;3.20;;
25341;SDS011;13298;48.792;9.154;2023-10-19T02:16:13;4.25;;;3.00;;
25341;SDS011;13298;48.792;9.154;2023-10-19T02:18:45;5.18;;;3.00;;
25341;SDS011;13298;48.792;9.154;2023-10-19T02:21:11;4.00;;;2.88;;
25341;SDS011;13298;48.792;9.154;2023-10-19T02:23:39;6.15;;;3.28;;
25341;SDS011;13298;48.792;9.154;2023-10-19T02:26:09;4.65;;;2.90;;
25341;SDS011;13298;48.792;9.154;2023-10-19T02:28:39;3.85;;;3.10;;
25341;SDS011;13298;48.792;9.154;2023-10-19T02:31:05;3.60;;;2.70;;
25341;SDS011;13298;48.792;9.154;2023-10-19T02:33:44;8.05;;;3.08;;
25341;SDS011;13298;48.792;9.154;2023-10-19T02:36:29;4.97;;;2.65;;
25341;SDS011;13298;48.792;9.154;2023-10-19T02:38:56;5.53;;;3.17;;
25341;SDS011;13298;48.792;9.154;2023-10-19T02:41:32;6.70;;;3.15;;
25341;SDS011;13298;48.792;9.154;2023-10-19T02:44:00;5.22;;;2.95;;
25341;SDS011;13298;48.792;9.154;2023-10-19T02:46:29;4.03;;;2.72;;
25341;SDS011;13298;48.792;9.154;2023-10-19T02:48:59;4.25;;;2.78;;
25341;SDS011;13298;48.792;9.154;2023-10-19T02:51:44;3.50;;;2.65;;
25341;SDS011;13298;48.792;9.154;2023-10-19T02:54:11;5.45;;;2.85;;
25341;SDS011;13298;48.792;9.154;2023-10-19T02:57:01;5.82;;;3.28;;
25341;SDS011;13298;48.792;9.154;2023-10-19T02:59:27;4.85;;;3.15;;
25341;SDS011;13298;48.792;9.154;2023-10-19T03:01:54;4.57;;;2.75;;
25341;SDS011;13298;48.792;9.154;2023-10-19T03:06:54;6.90;;;3.45;;
25341;SDS011;13298;48.792;9.154;2023-10-19T03:09:22;7.20;;;3.30;;
25341;SDS011;13298;48.792;9.154;2023-10-19T03:11:53;5.80;;;3.85;;
25341;SDS011;13298;48.792;9.154;2023-10-19T03:14:29;4.65;;;3.13;;
25341;SDS011;13298;48.792;9.154;2023-10-19T03:16:56;6.15;;;3.88;;
25341;SDS011;13298;48.792;9.154;2023-10-19T03:19:23;5.82;;;3.65;;
25341;SDS011;13298;48.792;9.154;2023-10-19T03:21:50;5.80;;;3.53;;
25341;SDS011;13298;48.792;9.154;2023-10-19T03:24:16;4.55;;;3.75;;
25341;SDS011;13298;48.792;9.154;2023-10-19T03:27:02;3.90;;;3.17;;
25341;SDS011;13298;48.792;9.154;2023-10-19T03:29:41;5.10;;;3.03;;
25341;SDS011;13298;48.792;9.154;2023-10-19T03:32:13;3.45;;;2.45;;
25341;SDS011;13298;48.792;9.154;2023-10-19T03:34:41;3.88;;;2.97;;
25341;SDS011;13298;48.792;9.154;2023-10-19T03:37:12;3.53;;;2.70;;
25341;SDS011;13298;48.792;9.154;2023-10-19T03:39:39;4.13;;;2.80;;
25341;SDS011;13298;48.792;9.154;2023-10-19T03:42:06;3.83;;;3.10;;
25341;SDS011;13298;48.792;9.154;2023-10-19T03:44:38;5.55;;;3.90;;
25341;SDS011;13298;48.792;9.154;2023-10-19T03:47:18;9.73;;;5.20;;
25341;SDS011;13298;48.792;9.154;2023-10-19T03:49:45;7.85;;;4.82;;
25341;SDS011;13298;48.792;9.154;2023-10-19T03:52:15;6.55;;;4.90;;
25341;SDS011;13298;48.792;9.154;2023-10-19T03:54:41;6.07;;;4.93;;
25341;SDS011;13298;48.792;9.154;2023-10-19T03:57:07;7.43;;;4.57;;
25341;SDS011;13298;48.792;9.154;2023-10-19T03:59:54;6.40;;;4.50;;
25341;SDS011;13298;48.792;9.154;2023-10-19T04:02:23;7.80;;;3.95;;
25341;SDS011;13298;48.792;9.154;2023-10-19T04:05:00;5.30;;;3.67;;
25341;SDS011;13298;48.792;9.154;2023-10-19T04:07:27;5.72;;;3.60;;
25341;SDS011;13298;48.792;9.154;2023-10-19T04:09:56;7.47;;;3.40;;
25341;SDS011;13298;48.792;9.154;2023-10-19T04:12:29;4.25;;;3.10;;
25341;SDS011;13298;48.792;9.154;2023-10-19T04:15:00;3.90;;;3.17;;
25341;SDS011;13298;48.792;9.154;2023-10-19T04:17:41;3.55;;;3.20;;
25341;SDS011;13298;48.792;9.154;2023-10-19T04:20:08;5.90;;;3.00;;
25341;SDS011;13298;48.792;9.154;2023-10-19T04:22:44;4.35;;;2.88;;
25341;SDS011;13298;48.792;9.154;2023-10-19T04:25:12;4.40;;;3.13;;
25341;SDS011;13298;48.792;9.154;2023-10-19T04:27:41;5.60;;;3.13;;
25341;SDS011;13298;48.792;9.154;2023-10-19T04:30:11;5.97;;;3.42;;
25341;SDS011;13298;48.792;9.154;2023-10-19T04:32:42;6.25;;;3.13;;
25341;SDS011;13298;48.792;9.154;2023-10-19T04:35:08;5.38;;;3.08;;
25341;SDS011;13298;48.792;9.154;2023-10-19T04:37:35;4.47;;;2.92;;
25341;SDS011;13298;48.792;9.154;2023-10-19T04:40:01;3.42;;;2.80;;
25341;SDS011;13298;48.792;9.154;2023-10-19T04:42:27;6.00;;;2.80;;
25341;SDS011;13298;48.792;9.154;2023-10-19T04:44:56;4.32;;;2.78;;
25341;SDS011;13298;48.792;9.154;2023-10-19T04:47:21;4.68;;;3.05;;
25341;SDS011;13298;48.792;9.154;2023-10-19T04:49:47;8.60;;;3.55;;
25341;SDS011;13298;48.792;9.154;2023-10-19T04:52:13;6.45;;;3.50;;
25341;SDS011;13298;48.792;9.154;2023-10-19T04:54:38;7.85;;;3.95;;
25341;SDS011;13298;48.792;9.154;2023-10-19T04:57:04;5.25;;;3.22;;
25341;SDS011;13298;48.792;9.154;2023-10-19T04:59:30;6.28;;;3.65;;
25341;SDS011;13298;48.792;9.154;2023-10-19T05:01:59;6.60;;;3.40;;
25341;SDS011;13298;48.792;9.154;2023-10-19T05:04:28;8.13;;;3.53;;
25341;SDS011;13298;48.792;9.154;2023-10-19T05:06:54;4.93;;;3.42;;
25341;SDS011;13298;48.792;9.154;2023-10-19T05:09:20;7.30;;;3.80;;
25341;SDS011;13298;48.792;9.154;2023-10-19T05:11:46;6.72;;;3.20;;
25341;SDS011;13298;48.792;9.154;2023-10-19T05:14:13;6.53;;;3.42;;
25341;SDS011;13298;48.792;9.154;2023-10-19T05:16:39;8.10;;;3.67;;
25341;SDS011;13298;48.792;9.154;2023-10-19T05:19:05;5.93;;;3.95;;
25341;SDS011;13298;48.792;9.154;2023-10-19T05:21:31;5.72;;;4.40;;
25341;SDS011;13298;48.792;9.154;2023-10-19T05:23:57;8.95;;;6.03;;
25341;SDS011;13298;48.792;9.154;2023-10-19T05:26:25;5.95;;;4.72;;
25341;SDS011;13298;48.792;9.154;2023-10-19T05:28:51;8.32;;;5.28;;
25341;SDS011;13298;48.792;9.154;2023-10-19T05:31:17;5.70;;;4.60;;
25341;SDS011;13298;48.792;9.154;2023-10-19T05:33:43;6.13;;;4.88;;
25341;SDS011;13298;48.792;9.154;2023-10-19T05:36:09;7.70;;;4.72;;
25341;SDS011;13298;48.792;9.154;2023-10-19T05:38:34;7.78;;;4.30;;
25341;SDS011;13298;48.792;9.154;2023-10-19T05:41:00;5.90;;;4.60;;
25341;SDS011;13298;48.792;9.154;2023-10-19T05:43:26;4.80;;;3.80;;
25341;SDS011;13298;48.792;9.154;2023-10-19T05:45:53;5.60;;;4.40;;
25341;SDS011;13298;48.792;9.154;2023-10-19T05:48:19;4.55;;;3.90;;
25341;SDS011;13298;48.792;9.154;2023-10-19T05:50:45;10.73;;;4.50;;
25341;SDS011;13298;48.792;9.154;2023-10-19T05:53:11;7.45;;;4.32;;
25341;SDS011;13298;48.792;9.154;2023-10-19T05:55:37;5.05;;;4.18;;
25341;SDS011;13298;48.792;9.154;2023-10-19T05:58:04;8.68;;;4.45;;
25341;SDS011;13298;48.792;9.154;2023-10-19T06:00:30;4.97;;;4.28;;
25341;SDS011;13298;48.792;9.154;2023-10-19T06:02:56;5.47;;;3.95;;
25341;SDS011;13298;48.792;9.154;2023-10-19T06:05:24;5.22;;;4.13;;
25341;SDS011;13298;48.792;9.154;2023-10-19T06:07:50;5.90;;;4.53;;
25341;SDS011;13298;48.792;9.154;2023-10-19T06:10:17;9.95;;;4.40;;
25341;SDS011;13298;48.792;9.154;2023-10-19T06:12:47;4.35;;;3.60;;
25341;SDS011;13298;48.792;9.154;2023-10-19T06:15:15;5.65;;;4.13;;
25341;SDS011;13298;48.792;9.154;2023-10-19T06:17:46;6.15;;;4.25;;
25341;SDS011;13298;48.792;9.154;2023-10-19T06:20:12;6.10;;;4.30;;
25341;SDS011;13298;48.792;9.154;2023-10-19T06:22:57;6.30;;;3.78;;
25341;SDS011;13298;48.792;9.154;2023-10-19T06:25:29;8.23;;;3.90;;
25341;SDS011;13298;48.792;9.154;2023-10-19T06:27:56;5.28;;;4.10;;
25341;SDS011;13298;48.792;9.154;2023-10-19T06:30:22;9.07;;;4.15;;
25341;SDS011;13298;48.792;9.154;2023-10-19T06:32:49;6.53;;;4.35;;
25341;SDS011;13298;48.792;9.154;2023-10-19T06:35:17;6.65;;;3.75;;
25341;SDS011;13298;48.792;9.154;2023-10-19T06:37:44;5.25;;;4.20;;
25341;SDS011;13298;48.792;9.154;2023-10-19T06:40:10;5.97;;;4.28;;
25341;SDS011;13298;48.792;9.154;2023-10-19T06:42:39;6.95;;;3.70;;
25341;SDS011;13298;48.792;9.154;2023-10-19T06:45:15;5.53;;;4.35;;
25341;SDS011;13298;48.792;9.154;2023-10-19T06:47:44;6.55;;;4.57;;
25341;SDS011;13298;48.792;9.154;2023-10-19T06:50:13;6.97;;;4.25;;
25341;SDS011;13298;48.792;9.154;2023-10-19T06:52:43;7.43;;;4.53;;
25341;SDS011;13298;48.792;9.154;2023-10-19T06:55:10;6.78;;;4.72;;
25341;SDS011;13298;48.792;9.154;2023-10-19T06:57:47;6.70;;;4.70;;
25341;SDS011;13298;48.792;9.154;2023-10-19T07:00:18;5.45;;;4.32;;
25341;SDS011;13298;48.792;9.154;2023-10-19T07:02:47;8.80;;;4.97;;
25341;SDS011;13298;48.792;9.154;2023-10-19T07:05:16;8.10;;;4.43;;
25341;SDS011;13298;48.792;9.154;2023-10-19T07:07:44;7.47;;;4.70;;
25341;SDS011;13298;48.792;9.154;2023-10-19T07:10:11;7.88;;;4.55;;
25341;SDS011;13298;48.792;9.154;2023-10-19T07:12:43;6.90;;;4.70;;
25341;SDS011;13298;48.792;9.154;2023-10-19T07:15:11;6.95;;;4.43;;
25341;SDS011;13298;48.792;9.154;2023-10-19T07:17:40;7.13;;;4.70;;
25341;SDS011;13298;48.792;9.154;2023-10-19T07:20:07;9.63;;;5.30;;
25341;SDS011;13298;48.792;9.154;2023-10-19T07:22:47;7.85;;;4.80;;
25341;SDS011;13298;48.792;9.154;2023-10-19T07:25:13;6.30;;;4.53;;
25341;SDS011;13298;48.792;9.154;2023-10-19T07:27:38;8.73;;;5.20;;
25341;SDS011;13298;48.792;9.154;2023-10-19T07:30:07;5.68;;;4.43;;
25341;SDS011;13298;48.792;9.154;2023-10-19T07:32:34;6.47;;;5.07;;
25341;SDS011;13298;48.792;9.154;2023-10-19T07:35:00;6.10;;;4.50;;
25341;SDS011;13298;48.792;9.154;2023-10-19T07:37:26;7.35;;;5.15;;
25341;SDS011;13298;48.792;9.154;2023-10-19T07:39:53;6.05;;;4.68;;
25341;SDS011;13298;48.792;9.154;2023-10-19T07:42:22;5.65;;;4.47;;
25341;SDS011;13298;48.792;9.154;2023-10-19T07:44:48;7.40;;;5.35;;
25341;SDS011;13298;48.792;9.154;2023-10-19T07:47:14;6.07;;;4.10;;
25341;SDS011;13298;48.792;9.154;2023-10-19T07:49:40;6.13;;;3.92;;
25341;SDS011;13298;48.792;9.154;2023-10-19T07:52:06;4.65;;;3.92;;
25341;SDS011;13298;48.792;9.154;2023-10-19T07:54:36;5.15;;;4.20;;
25341;SDS011;13298;48.792;9.154;2023-10-19T07:57:03;7.13;;;4.40;;
25341;SDS011;13298;48.792;9.154;2023-10-19T07:59:32;7.20;;;4.57;;
25341;SDS011;13298;48.792;9.154;2023-10-19T08:01:58;5.72;;;4.25;;
25341;SDS011;13298;48.792;9.154;2023-10-19T08:04:28;10.23;;;4.90;;
25341;SDS011;13298;48.792;9.154;2023-10-19T08:06:54;7.55;;;4.65;;
25341;SDS011;13298;48.792;9.154;2023-10-19T08:09:20;10.15;;;5.07;;
25341;SDS011;13298;48.792;9.154;2023-10-19T08:11:52;8.43;;;4.95;;
25341;SDS011;13298;48.792;9.154;2023-10-19T08:14:21;7.15;;;4.93;;
25341;SDS011;13298;48.792;9.154;2023-10-19T08:16:49;7.10;;;5.35;;
25341;SDS011;13298;48.792;9.154;2023-10-19T08:19:16;8.95;;;5.40;;
25341;SDS011;13298;48.792;9.154;2023-10-19T08:21:43;7.97;;;4.70;;
25341;SDS011;13298;48.792;9.154;2023-10-19T08:24:09;9.73;;;4.90;;
25341;SDS011;13298;48.792;9.154;2023-10-19T08:26:41;6.43;;;4.93;;
25341;SDS011;13298;48.792;9.154;2023-10-19T08:29:07;6.88;;;4.60;;
25341;SDS011;13298;48.792;9.154;2023-10-19T08:31:38;9.07;;;5.00;;
25341;SDS011;13298;48.792;9.154;2023-10-19T08:34:06;6.78;;;4.57;;
25341;SDS011;13298;48.792;9.154;2023-10-19T08:36:34;5.35;;;4.30;;
25341;SDS011;13298;48.792;9.154;2023-10-19T08:39:02;4.57;;;3.63;;
25341;SDS011;13298;48.792;9.154;2023-10-19T08:41:37;5.78;;;3.83;;
25341;SDS011;13298;48.792;9.154;2023-10-19T08:44:05;5.55;;;4.43;;
25341;SDS011;13298;48.792;9.154;2023-10-19T08:46:36;6.60;;;4.00;;
25341;SDS011;13298;48.792;9.154;2023-10-19T08:49:08;5.97;;;3.97;;
25341;SDS011;13298;48.792;9.154;2023-10-19T08:51:37;6.95;;;4.60;;
25341;SDS011;13298;48.792;9.154;2023-10-19T08:54:04;5.50;;;4.03;;
25341;SDS011;13298;48.792;9.154;2023-10-19T08:56:35;9.70;;;5.20;;
25341;SDS011;13298;48.792;9.154;2023-10-19T08:59:02;8.82;;;5.32;;
25341;SDS011;13298;48.792;9.154;2023-10-19T09:01:28;10.35;;;5.97;;
25341;SDS011;13298;48.792;9.154;2023-10-19T09:03:57;8.52;;;5.45;;
25341;SDS011;13298;48.792;9.154;2023-10-19T09:06:39;13.23;;;7.90;;
25341;SDS011;13298;48.792;9.154;2023-10-19T09:09:11;12.20;;;6.38;;
25341;SDS011;13298;48.792;9.154;2023-10-19T09:11:45;14.90;;;6.97;;
25341;SDS011;13298;48.792;9.154;2023-10-19T09:14:12;10.57;;;6.78;;
25341;SDS011;13298;48.792;9.154;2023-10-19T09:16:38;13.90;;;7.03;;
25341;SDS011;13298;48.792;9.154;2023-10-19T09:19:35;13.98;;;7.30;;
25341;SDS011;13298;48.792;9.154;2023-10-19T09:22:07;17.50;;;7.68;;
25341;SDS011;13298;48.792;9.154;2023-10-19T09:24:41;14.07;;;6.32;;
25341;SDS011;13298;48.792;9.154;2023-10-19T09:27:11;10.02;;;6.10;;
25341;SDS011;13298;48.792;9.154;2023-10-19T09:29:40;10.63;;;5.97;;
25341;SDS011;13298;48.792;9.154;2023-10-19T09:32:07;14.15;;;6.20;;
25341;SDS011;13298;48.792;9.154;2023-10-19T09:34:33;7.82;;;5.88;;
25341;SDS011;13298;48.792;9.154;2023-10-19T09:37:01;6.90;;;4.55;;
25341;SDS011;13298;48.792;9.154;2023-10-19T09:39:31;9.18;;;5.40;;
25341;SDS011;13298;48.792;9.154;2023-10-19T09:42:07;9.30;;;4.90;;
25341;SDS011;13298;48.792;9.154;2023-10-19T09:44:41;6.18;;;4.35;;
25341;SDS011;13298;48.792;9.154;2023-10-19T09:47:10;6.03;;;4.32;;
25341;SDS011;13298;48.792;9.154;2023-10-19T09:49:39;7.07;;;3.35;;
25341;SDS011;13298;48.792;9.154;2023-10-19T09:52:07;4.95;;;2.95;;
25341;SDS011;13298;48.792;9.154;2023-10-19T09:54:42;5.32;;;3.38;;
25341;SDS011;13298;48.792;9.154;2023-10-19T09:57:13;4.45;;;2.75;;
25341;SDS011;13298;48.792;9.154;2023-10-19T09:59:49;5.55;;;2.60;;
25341;SDS011;13298;48.792;9.154;2023-10-19T10:02:23;5.53;;;2.67;;
25341;SDS011;13298;48.792;9.154;2023-10-19T10:04:49;6.90;;;3.10;;
25341;SDS011;13298;48.792;9.154;2023-10-19T10:07:15;4.45;;;3.15;;
25341;SDS011;13298;48.792;9.154;2023-10-19T10:09:42;3.50;;;2.53;;
25341;SDS011;13298;48.792;9.154;2023-10-19T10:12:15;4.15;;;2.60;;
25341;SDS011;13298;48.792;9.154;2023-10-19T10:14:55;5.15;;;2.85;;
25341;SDS011;13298;48.792;9.154;2023-10-19T10:17:35;6.95;;;3.25;;
25341;SDS011;13298;48.792;9.154;2023-10-19T10:22:42;4.93;;;2.70;;
25341;SDS011;13298;48.792;9.154;2023-10-19T10:25:08;6.60;;;3.10;;
25341;SDS011;13298;48.792;9.154;2023-10-19T10:27:54;6.47;;;2.95;;
25341;SDS011;13298;48.792;9.154;2023-10-19T10:30:20;3.95;;;2.42;;
25341;SDS011;13298;48.792;9.154;2023-10-19T10:32:47;5.20;;;2.97;;
25341;SDS011;13298;48.792;9.154;2023-10-19T10:35:54;6.28;;;2.58;;
25341;SDS011;13298;48.792;9.154;2023-10-19T10:38:19;5.00;;;2.53;;
25341;SDS011;13298;48.792;9.154;2023-10-19T10:40:45;4.93;;;2.83;;
25341;SDS011;13298;48.792;9.154;2023-10-19T10:43:16;4.90;;;2.60;;
25341;SDS011;13298;48.792;9.154;2023-10-19T10:45:43;3.38;;;2.63;;
25341;SDS011;13298;48.792;9.154;2023-10-19T10:48:13;3.47;;;2.30;;
25341;SDS011;13298;48.792;9.154;2023-10-19T10:50:40;4.18;;;2.85;;
25341;SDS011;13298;48.792;9.154;2023-10-19T10:53:11;2.88;;;2.15;;
25341;SDS011;13298;48.792;9.154;2023-10-19T10:55:38;4.07;;;2.83;;
25341;SDS011;13298;48.792;9.154;2023-10-19T10:58:04;3.78;;;2.60;;
25341;SDS011;13298;48.792;9.154;2023-10-19T11:00:30;3.85;;;2.47;;
25341;SDS011;13298;48.792;9.154;2023-10-19T11:03:02;3.60;;;2.80;;
25341;SDS011;13298;48.792;9.154;2023-10-19T11:05:33;4.20;;;3.08;;
25341;SDS011;13298;48.792;9.154;2023-10-19T11:10:46;5.40;;;2.72;;
25341;SDS011;13298;48.792;9.154;2023-10-19T11:13:13;3.92;;;2.40;;
25341;SDS011;13298;48.792;9.154;2023-10-19T11:15:50;4.78;;;2.40;;
25341;SDS011;13298;48.792;9.154;2023-10-19T11:18:27;4.72;;;2.85;;
25341;SDS011;13298;48.792;9.154;2023-10-19T11:21:02;3.80;;;2.35;;
25341;SDS011;13298;48.792;9.154;2023-10-19T11:23:50;2.58;;;2.00;;
25341;SDS011;13298;48.792;9.154;2023-10-19T11:26:22;3.80;;;1.63;;
25341;SDS011;13298;48.792;9.154;2023-10-19T11:28:58;4.32;;;1.73;;
25341;SDS011;13298;48.792;9.154;2023-10-19T11:31:29;2.75;;;1.90;;
25341;SDS011;13298;48.792;9.154;2023-10-19T11:34:02;2.13;;;1.52;;
25341;SDS011;13298;48.792;9.154;2023-10-19T11:36:29;3.13;;;1.70;;
25341;SDS011;13298;48.792;9.154;2023-10-19T11:38:56;2.40;;;1.40;;
25341;SDS011;13298;48.792;9.154;2023-10-19T11:41:22;1.98;;;1.40;;
25341;SDS011;13298;48.792;9.154;2023-10-19T11:43:48;3.20;;;1.45;;
25341;SDS011;13298;48.792;9.154;2023-10-19T11:46:15;3.63;;;1.60;;
25341;SDS011;13298;48.792;9.154;2023-10-19T11:48:47;1.73;;;1.38;;
25341;SDS011;13298;48.792;9.154;2023-10-19T11:51:13;2.40;;;1.40;;
25341;SDS011;13298;48.792;9.154;2023-10-19T11:53:40;2.15;;;1.40;;
25341;SDS011;13298;48.792;9.154;2023-10-19T11:56:08;4.00;;;1.80;;
25341;SDS011;13298;48.792;9.154;2023-10-19T11:58:37;2.08;;;1.30;;
25341;SDS011;13298;48.792;9.154;2023-10-19T12:01:05;1.95;;;1.13;;
25341;SDS011;13298;48.792;9.154;2023-10-19T12:03:33;2.20;;;1.30;;
25341;SDS011;13298;48.792;9.154;2023-10-19T12:06:04;2.17;;;1.20;;
25341;SDS011;13298;48.792;9.154;2023-10-19T12:08:34;2.08;;;1.42;;
25341;SDS011;13298;48.792;9.154;2023-10-19T12:11:05;3.15;;;2.10;;
25341;SDS011;13298;48.792;9.154;2023-10-19T12:13:40;3.92;;;2.05;;
25341;SDS011;13298;48.792;9.154;2023-10-19T12:16:08;3.20;;;2.20;;
25341;SDS011;13298;48.792;9.154;2023-10-19T12:18:37;5.30;;;2.00;;
25341;SDS011;13298;48.792;9.154;2023-10-19T12:21:07;2.78;;;1.90;;
25341;SDS011;13298;48.792;9.154;2023-10-19T12:23:38;3.13;;;1.80;;
25341;SDS011;13298;48.792;9.154;2023-10-19T12:26:05;5.15;;;2.00;;
25341;SDS011;13298;48.792;9.154;2023-10-19T12:28:36;5.47;;;3.00;;
25341;SDS011;13298;48.792;9.154;2023-10-19T12:31:03;17.95;;;15.90;;
25341;SDS011;13298;48.792;9.154;2023-10-19T12:33:30;8.27;;;5.85;;
25341;SDS011;13298;48.792;9.154;2023-10-19T12:35:56;6.15;;;3.83;;
25341;SDS011;13298;48.792;9.154;2023-10-19T12:38:23;9.15;;;4.80;;
25341;SDS011;13298;48.792;9.154;2023-10-19T12:40:50;7.47;;;3.83;;
25341;SDS011;13298;48.792;9.154;2023-10-19T12:43:16;6.60;;;3.55;;
25341;SDS011;13298;48.792;9.154;2023-10-19T12:45:50;5.32;;;2.80;;
25341;SDS011;13298;48.792;9.154;2023-10-19T12:48:18;5.63;;;3.15;;
25341;SDS011;13298;48.792;9.154;2023-10-19T12:50:48;5.25;;;3.17;;
25341;SDS011;13298;48.792;9.154;2023-10-19T12:53:14;6.57;;;4.57;;
25341;SDS011;13298;48.792;9.154;2023-10-19T12:55:40;7.32;;;3.58;;
25341;SDS011;13298;48.792;9.154;2023-10-19T12:58:08;5.75;;;2.78;;
25341;SDS011;13298;48.792;9.154;2023-10-19T13:00:37;4.85;;;2.70;;
25341;SDS011;13298;48.792;9.154;2023-10-19T13:03:06;4.75;;;3.30;;
25341;SDS011;13298;48.792;9.154;2023-10-19T13:05:33;10.02;;;3.15;;
25341;SDS011;13298;48.792;9.154;2023-10-19T13:08:01;6.10;;;2.65;;
25341;SDS011;13298;48.792;9.154;2023-10-19T13:10:28;3.35;;;2.60;;
25341;SDS011;13298;48.792;9.154;2023-10-19T13:13:01;6.28;;;3.60;;
25341;SDS011;13298;48.792;9.154;2023-10-19T13:15:31;5.47;;;3.17;;
25341;SDS011;13298;48.792;9.154;2023-10-19T13:18:02;6.25;;;3.30;;
25341;SDS011;13298;48.792;9.154;2023-10-19T13:20:28;4.80;;;2.35;;
25341;SDS011;13298;48.792;9.154;2023-10-19T13:22:59;5.22;;;3.15;;
25341;SDS011;13298;48.792;9.154;2023-10-19T13:25:36;5.45;;;2.90;;
25341;SDS011;13298;48.792;9.154;2023-10-19T13:28:14;7.40;;;3.53;;
25341;SDS011;13298;48.792;9.154;2023-10-19T13:30:49;7.05;;;3.05;;
25341;SDS011;13298;48.792;9.154;2023-10-19T13:33:16;5.07;;;2.90;;
25341;SDS011;13298;48.792;9.154;2023-10-19T13:35:44;5.15;;;3.38;;
25341;SDS011;13298;48.792;9.154;2023-10-19T13:38:10;3.80;;;2.88;;
25341;SDS011;13298;48.792;9.154;2023-10-19T13:40:39;5.00;;;2.80;;
25341;SDS011;13298;48.792;9.154;2023-10-19T13:43:05;4.88;;;3.55;;
25341;SDS011;13298;48.792;9.154;2023-10-19T13:45:33;5.50;;;3.15;;
25341;SDS011;13298;48.792;9.154;2023-10-19T13:48:03;5.57;;;2.78;;
25341;SDS011;13298;48.792;9.154;2023-10-19T13:50:33;5.00;;;3.17;;
25341;SDS011;13298;48.792;9.154;2023-10-19T13:53:00;3.45;;;2.83;;
25341;SDS011;13298;48.792;9.154;2023-10-19T13:55:29;3.50;;;2.65;;
25341;SDS011;13298;48.792;9.154;2023-10-19T13:57:56;3.92;;;2.50;;
25341;SDS011;13298;48.792;9.154;2023-10-19T14:00:23;5.28;;;2.70;;
25341;SDS011;13298;48.792;9.154;2023-10-19T14:02:55;4.45;;;2.90;;
25341;SDS011;13298;48.792;9.154;2023-10-19T14:05:24;4.80;;;3.03;;
25341;SDS011;13298;48.792;9.154;2023-10-19T14:07:50;4.15;;;3.05;;
25341;SDS011;13298;48.792;9.154;2023-10-19T14:10:17;5.03;;;3.10;;
25341;SDS011;13298;48.792;9.154;2023-10-19T14:12:44;5.28;;;2.95;;
25341;SDS011;13298;48.792;9.154;2023-10-19T14:15:14;3.60;;;2.90;;
25341;SDS011;13298;48.792;9.154;2023-10-19T14:17:42;4.45;;;2.97;;
25341;SDS011;13298;48.792;9.154;2023-10-19T14:20:13;4.25;;;3.47;;
25341;SDS011;13298;48.792;9.154;2023-10-19T14:22:44;4.28;;;3.10;;
25341;SDS011;13298;48.792;9.154;2023-10-19T14:25:12;3.85;;;3.13;;
25341;SDS011;13298;48.792;9.154;2023-10-19T14:27:39;4.28;;;3.00;;
25341;SDS011;13298;48.792;9.154;2023-10-19T14:30:13;4.93;;;3.40;;
25341;SDS011;13298;48.792;9.154;2023-10-19T14:32:42;6.28;;;4.18;;
25341;SDS011;13298;48.792;9.154;2023-10-19T14:35:10;5.53;;;3.20;;
25341;SDS011;13298;48.792;9.154;2023-10-19T14:37:38;9.00;;;3.65;;
25341;SDS011;13298;48.792;9.154;2023-10-19T14:40:16;5.97;;;3.85;;
25341;SDS011;13298;48.792;9.154;2023-10-19T14:42:51;5.85;;;4.30;;
25341;SDS011;13298;48.792;9.154;2023-10-19T14:45:22;5.68;;;4.18;;
25341;SDS011;13298;48.792;9.154;2023-10-19T14:47:54;5.85;;;3.80;;
25341;SDS011;13298;48.792;9.154;2023-10-19T14:50:20;5.20;;;3.88;;
25341;SDS011;13298;48.792;9.154;2023-10-19T14:52:48;5.05;;;3.40;;
25341;SDS011;13298;48.792;9.154;2023-10-19T14:55:17;5.82;;;4.60;;
25341;SDS011;13298;48.792;9.154;2023-10-19T14:57:43;9.45;;;4.70;;
25341;SDS011;13298;48.792;9.154;2023-10-19T15:00:13;6.97;;;4.20;;
25341;SDS011;13298;48.792;9.154;2023-10-19T15:02:44;7.50;;;4.47;;
25341;SDS011;13298;48.792;9.154;2023-10-19T15:05:10;7.43;;;5.20;;
25341;SDS011;13298;48.792;9.154;2023-10-19T15:07:44;6.57;;;4.95;;
25341;SDS011;13298;48.792;9.154;2023-10-19T15:10:17;7.03;;;4.95;;
25341;SDS011;13298;48.792;9.154;2023-10-19T15:12:44;7.85;;;5.55;;
25341;SDS011;13298;48.792;9.154;2023-10-19T15:15:10;9.13;;;5.40;;